createdAt,value
2019-05-15T00:01:08.804Z,2.60
2019-05-15T00:03:39.153Z,2.53
2019-05-15T00:06:08.628Z,2.77
2019-05-15T00:08:38.732Z,2.40
2019-05-15T00:11:08.349Z,2.57
2019-05-15T00:13:38.926Z,2.70
2019-05-15T00:16:08.587Z,2.40
2019-05-15T00:18:39.064Z,2.63
2019-05-15T00:21:09.451Z,3.00
2019-05-15T00:23:38.941Z,2.53
2019-05-15T00:26:09.199Z,2.60
2019-05-15T00:28:38.960Z,3.00
2019-05-15T00:31:09.078Z,2.40
2019-05-15T00:33:39.483Z,2.40
2019-05-15T00:36:08.910Z,2.90
2019-05-15T00:38:38.963Z,2.60
2019-05-15T00:41:09.502Z,2.83
2019-05-15T00:43:39.009Z,2.87
2019-05-15T00:46:09.188Z,2.47
2019-05-15T00:48:39.762Z,3.17
2019-05-15T00:51:09.318Z,2.80
2019-05-15T00:53:39.081Z,2.73
2019-05-15T00:56:08.893Z,2.80
2019-05-15T00:58:39.927Z,2.30
2019-05-15T01:01:08.392Z,2.60
2019-05-15T01:03:38.805Z,2.53
2019-05-15T01:06:08.507Z,2.67
2019-05-15T01:08:39.264Z,2.40
2019-05-15T01:11:09.172Z,3.00
2019-05-15T01:13:39.148Z,2.37
2019-05-15T01:16:09.129Z,3.00
2019-05-15T01:18:38.914Z,2.70
2019-05-15T01:21:08.430Z,2.73
2019-05-15T01:23:39.069Z,2.50
2019-05-15T01:26:08.427Z,2.70
2019-05-15T01:28:38.394Z,2.77
2019-05-15T01:31:08.630Z,2.33
2019-05-15T01:33:39.071Z,2.70
2019-05-15T01:36:08.597Z,2.70
2019-05-15T01:38:38.855Z,2.80
2019-05-15T01:41:09.671Z,3.23
2019-05-15T01:43:38.313Z,2.80
2019-05-15T01:46:08.378Z,2.60
2019-05-15T01:48:38.881Z,3.10
2019-05-15T01:51:09.357Z,2.90
2019-05-15T01:53:38.620Z,3.20
2019-05-15T01:56:08.526Z,3.37
2019-05-15T01:58:38.253Z,3.10
2019-05-15T02:01:08.101Z,3.00
2019-05-15T02:03:38.511Z,3.20
2019-05-15T02:06:08.223Z,3.57
2019-05-15T02:08:39.244Z,4.30
2019-05-15T02:11:09.189Z,4.10
2019-05-15T02:13:39.098Z,3.90
2019-05-15T02:16:08.544Z,3.97
2019-05-15T02:18:39.064Z,4.27
2019-05-15T02:21:10.262Z,3.83
2019-05-15T02:23:38.881Z,3.90
2019-05-15T02:26:08.248Z,3.70
2019-05-15T02:28:38.416Z,3.90
2019-05-15T02:31:10.573Z,3.40
2019-05-15T02:33:39.958Z,3.40
2019-05-15T02:36:09.755Z,3.57
2019-05-15T02:38:40.994Z,3.67
2019-05-15T02:41:10.435Z,3.90
2019-05-15T02:43:39.704Z,3.90
2019-05-15T02:46:10.137Z,4.73
2019-05-15T02:48:41.044Z,4.37
2019-05-15T02:51:09.981Z,4.30
2019-05-15T02:53:39.896Z,4.00
2019-05-15T02:56:09.552Z,4.10
2019-05-15T02:58:39.809Z,3.90
2019-05-15T03:01:09.422Z,3.83
2019-05-15T03:03:39.384Z,4.40
2019-05-15T03:06:09.939Z,3.90
2019-05-15T03:08:39.929Z,3.97
2019-05-15T03:11:09.897Z,4.03
2019-05-15T03:13:39.609Z,4.40
2019-05-15T03:16:10.180Z,5.63
2019-05-15T03:18:40.026Z,4.60
2019-05-15T03:21:09.693Z,4.67
2019-05-15T03:23:40.492Z,4.03
2019-05-15T03:26:09.866Z,3.70
2019-05-15T03:28:39.559Z,4.10
2019-05-15T03:31:35.146Z,3.83
2019-05-15T03:33:45.384Z,3.60
2019-05-15T03:36:13.406Z,3.70
2019-05-15T03:38:39.891Z,3.23
2019-05-15T03:41:10.208Z,3.87
2019-05-15T03:43:39.645Z,3.73
2019-05-15T03:46:09.307Z,3.80
2019-05-15T03:48:40.174Z,4.10
2019-05-15T03:51:09.398Z,3.60
2019-05-15T03:53:40.112Z,3.53
2019-05-15T03:56:09.860Z,4.10
2019-05-15T03:58:40.272Z,3.60
2019-05-15T04:01:27.745Z,3.90
2019-05-15T04:03:39.622Z,3.83
2019-05-15T04:06:10.100Z,3.90
2019-05-15T04:08:39.362Z,3.67
2019-05-15T04:11:09.315Z,3.80
2019-05-15T04:13:39.664Z,3.73
2019-05-15T04:16:10.330Z,3.60
2019-05-15T04:18:39.827Z,3.70
2019-05-15T04:21:09.748Z,3.90
2019-05-15T04:23:39.646Z,3.83
2019-05-15T04:26:09.525Z,3.70
2019-05-15T04:28:41.666Z,4.20
2019-05-15T04:31:09.543Z,3.70
2019-05-15T04:33:40.166Z,3.83
2019-05-15T04:36:10.060Z,4.00
2019-05-15T04:38:39.699Z,3.63
2019-05-15T04:41:09.857Z,3.53
2019-05-15T04:43:44.842Z,3.73
2019-05-15T04:46:10.242Z,3.80
2019-05-15T04:48:39.985Z,3.60
2019-05-15T04:51:09.828Z,3.97
2019-05-15T04:53:39.702Z,4.07
2019-05-15T04:56:09.688Z,4.97
2019-05-15T04:58:39.773Z,4.37
2019-05-15T05:01:09.728Z,3.87
2019-05-15T05:03:39.527Z,4.47
2019-05-15T05:06:09.844Z,5.30
2019-05-15T05:08:40.042Z,4.43
2019-05-15T05:11:09.653Z,4.23
2019-05-15T05:13:39.424Z,4.77
2019-05-15T05:16:09.510Z,5.10
2019-05-15T05:18:41.287Z,4.77
2019-05-15T05:21:09.184Z,4.90
2019-05-15T05:23:38.613Z,4.23
2019-05-15T05:26:10.867Z,3.73
2019-05-15T05:28:38.212Z,3.57
2019-05-15T05:31:08.460Z,3.87
2019-05-15T05:33:38.191Z,3.47
2019-05-15T05:36:07.883Z,3.30
2019-05-15T05:38:38.828Z,3.10
2019-05-15T05:41:08.417Z,2.80
2019-05-15T05:43:38.288Z,2.13
2019-05-15T05:46:09.309Z,2.20
2019-05-15T05:48:38.475Z,2.00
2019-05-15T05:51:09.372Z,2.30
2019-05-15T05:53:38.556Z,2.30
2019-05-15T05:56:08.966Z,2.47
2019-05-15T05:58:38.976Z,2.30
2019-05-15T06:01:09.398Z,2.27
2019-05-15T06:03:38.951Z,2.03
2019-05-15T06:06:09.672Z,1.80
2019-05-15T06:08:39.008Z,1.67
2019-05-15T06:11:09.782Z,1.67
2019-05-15T06:13:38.439Z,1.57
2019-05-15T06:16:08.438Z,1.30
2019-05-15T06:18:38.757Z,1.57
2019-05-15T06:21:09.080Z,1.40
2019-05-15T06:23:43.993Z,1.60
2019-05-15T06:26:09.548Z,1.40
2019-05-15T06:28:39.580Z,1.30
2019-05-15T06:31:08.997Z,1.40
2019-05-15T06:33:38.380Z,1.37
2019-05-15T06:36:09.015Z,1.90
2019-05-15T06:38:39.472Z,1.60
2019-05-15T06:41:08.883Z,1.50
2019-05-15T06:43:38.899Z,1.50
2019-05-15T06:46:09.204Z,1.63
2019-05-15T06:48:38.470Z,1.60
2019-05-15T06:51:08.816Z,1.90
2019-05-15T06:53:38.740Z,1.80
2019-05-15T06:56:07.974Z,1.47
2019-05-15T06:58:38.511Z,1.50
2019-05-15T07:01:08.688Z,1.90
2019-05-15T07:03:39.257Z,1.60
2019-05-15T07:06:09.328Z,1.40
2019-05-15T07:08:38.962Z,1.73
2019-05-15T07:11:08.792Z,1.47
2019-05-15T07:13:38.546Z,1.43
2019-05-15T07:16:08.147Z,1.43
2019-05-15T07:18:39.033Z,1.93
2019-05-15T07:21:10.093Z,1.50
2019-05-15T07:23:38.951Z,1.70
2019-05-15T07:26:09.522Z,1.50
2019-05-15T07:28:38.281Z,1.63
2019-05-15T07:31:11.288Z,1.80
2019-05-15T07:33:43.318Z,1.47
2019-05-15T07:36:08.520Z,1.50
2019-05-15T07:38:39.124Z,1.70
2019-05-15T07:41:10.206Z,1.80
2019-05-15T07:43:38.772Z,2.30
2019-05-15T07:46:08.411Z,1.70
2019-05-15T07:48:38.391Z,1.50
2019-05-15T07:51:11.638Z,1.77
2019-05-15T07:53:38.684Z,1.40
2019-05-15T07:56:11.864Z,1.30
2019-05-15T07:58:38.707Z,1.40
2019-05-15T08:01:09.931Z,1.47
2019-05-15T08:03:55.110Z,1.67
2019-05-15T08:06:09.013Z,1.40
2019-05-15T08:08:39.394Z,1.40
2019-05-15T08:11:19.769Z,1.50
2019-05-15T08:13:39.688Z,1.90
2019-05-15T08:16:08.700Z,1.47
2019-05-15T08:18:39.443Z,1.37
2019-05-15T08:21:09.049Z,1.40
2019-05-15T08:23:39.076Z,1.57
2019-05-15T08:26:08.745Z,1.40
2019-05-15T08:28:38.462Z,1.60
2019-05-15T08:31:10.168Z,1.50
2019-05-15T08:33:38.903Z,1.87
2019-05-15T08:36:08.540Z,1.60
2019-05-15T08:38:38.405Z,1.67
2019-05-15T08:41:11.269Z,1.80
2019-05-15T08:43:38.386Z,1.30
2019-05-15T08:46:08.303Z,1.40
2019-05-15T08:48:38.419Z,1.43
2019-05-15T08:51:08.685Z,1.47
2019-05-15T08:53:38.259Z,1.30
2019-05-15T08:56:08.507Z,1.50
2019-05-15T08:58:38.313Z,1.30
2019-05-15T09:01:09.829Z,1.30
2019-05-15T09:03:38.198Z,1.30
2019-05-15T09:06:09.187Z,1.07
2019-05-15T09:08:39.059Z,1.30
2019-05-15T09:11:09.275Z,1.27
2019-05-15T09:13:42.978Z,1.30
2019-05-15T09:16:09.223Z,1.13
2019-05-15T09:18:39.161Z,1.27
2019-05-15T09:21:08.996Z,0.93
2019-05-15T09:23:38.758Z,1.17
2019-05-15T09:26:09.155Z,1.23
2019-05-15T09:28:39.172Z,1.37
2019-05-15T09:31:08.512Z,1.30
2019-05-15T09:33:38.709Z,1.40
2019-05-15T09:36:09.116Z,1.30
2019-05-15T09:38:39.150Z,1.27
2019-05-15T09:41:08.938Z,1.23
2019-05-15T09:43:40.543Z,1.30
2019-05-15T09:46:10.447Z,1.43
2019-05-15T09:48:39.395Z,1.50
2019-05-15T09:51:09.242Z,1.30
2019-05-15T09:53:39.513Z,1.50
2019-05-15T09:56:08.526Z,1.63
2019-05-15T09:58:38.155Z,1.30
2019-05-15T10:01:08.405Z,1.00
2019-05-15T10:03:39.601Z,1.30
2019-05-15T10:06:08.548Z,1.30
2019-05-15T10:08:39.738Z,1.23
2019-05-15T10:11:09.071Z,1.20
2019-05-15T10:13:38.612Z,1.40
2019-05-15T10:16:08.402Z,1.23
2019-05-15T10:18:38.916Z,1.23
2019-05-15T10:21:08.984Z,1.40
2019-05-15T10:23:40.357Z,1.43
2019-05-15T10:26:13.948Z,1.37
2019-05-15T10:28:39.410Z,1.10
2019-05-15T10:31:09.411Z,1.30
2019-05-15T10:33:39.460Z,1.00
2019-05-15T10:36:08.608Z,1.10
2019-05-15T10:38:39.142Z,1.00
2019-05-15T10:41:11.260Z,1.13
2019-05-15T10:43:45.878Z,1.33
2019-05-15T10:46:13.284Z,1.20
2019-05-15T10:48:39.527Z,1.00
2019-05-15T10:51:10.202Z,1.10
2019-05-15T10:53:39.302Z,1.37
2019-05-15T10:56:08.924Z,1.30
2019-05-15T10:58:39.264Z,1.00
2019-05-15T11:01:11.271Z,0.80
2019-05-15T11:03:39.993Z,1.10
2019-05-15T11:06:09.353Z,0.90
2019-05-15T11:08:40.370Z,0.90
2019-05-15T11:11:09.169Z,1.10
2019-05-15T11:13:38.723Z,0.90
2019-05-15T11:16:07.368Z,1.00
2019-05-15T11:18:39.237Z,1.00
2019-05-15T11:21:08.288Z,1.00
2019-05-15T11:23:39.559Z,0.80
2019-05-15T11:26:08.745Z,1.00
2019-05-15T11:28:39.049Z,1.00
2019-05-15T11:31:10.342Z,0.90
2019-05-15T11:33:39.363Z,1.40
2019-05-15T11:36:08.031Z,1.20
2019-05-15T11:38:38.231Z,0.90
2019-05-15T11:41:08.629Z,1.10
2019-05-15T11:43:38.770Z,1.00
2019-05-15T11:46:09.954Z,1.00
2019-05-15T11:48:39.115Z,1.00
2019-05-15T11:51:09.593Z,1.10
2019-05-15T11:53:39.710Z,1.20
2019-05-15T11:56:09.478Z,0.93
2019-05-15T11:58:39.127Z,0.87
2019-05-15T12:01:08.682Z,0.73
2019-05-15T12:03:38.574Z,1.00
2019-05-15T12:06:18.081Z,0.80
2019-05-15T12:08:38.704Z,0.83
2019-05-15T12:11:12.005Z,1.13
2019-05-15T12:13:38.322Z,1.17
2019-05-15T12:16:07.234Z,0.83
2019-05-15T12:18:38.871Z,1.27
2019-05-15T12:21:07.148Z,1.00
2019-05-15T12:23:38.165Z,0.83
2019-05-15T12:26:09.051Z,0.73
2019-05-15T12:28:40.260Z,1.00
2019-05-15T12:31:09.016Z,1.00
2019-05-15T12:33:38.602Z,1.00
2019-05-15T12:36:10.602Z,1.30
2019-05-15T12:38:39.834Z,0.87
2019-05-15T13:01:17.493Z,1.10
2019-05-15T13:03:43.607Z,0.90
2019-05-15T13:06:12.251Z,0.90
2019-05-15T13:08:41.475Z,0.80
2019-05-15T13:11:15.017Z,1.20
2019-05-15T13:13:41.202Z,1.07
2019-05-15T13:16:10.147Z,0.77
2019-05-15T13:18:39.094Z,0.90
2019-05-15T13:21:08.082Z,0.87
2019-05-15T13:23:38.721Z,1.00
2019-05-15T13:26:21.481Z,1.10
2019-05-15T13:28:38.110Z,0.90
2019-05-15T13:31:08.999Z,0.73
2019-05-15T13:33:38.586Z,0.87
2019-05-15T13:36:08.972Z,1.00
2019-05-15T13:38:38.529Z,1.17
2019-05-15T13:41:09.409Z,1.07
2019-05-15T13:43:38.616Z,0.70
2019-05-15T13:46:08.806Z,0.90
2019-05-15T13:48:38.613Z,0.90
2019-05-15T13:51:07.680Z,0.73
2019-05-15T13:53:38.451Z,0.77
2019-05-15T13:56:07.310Z,0.87
2019-05-15T13:58:35.950Z,0.63
2019-05-15T14:01:04.997Z,0.90
2019-05-15T14:03:33.619Z,0.83
2019-05-15T14:06:02.431Z,0.73
2019-05-15T14:08:31.064Z,0.70
2019-05-15T14:10:59.715Z,0.70
2019-05-15T14:13:29.050Z,0.90
2019-05-15T14:15:58.339Z,0.90
2019-05-15T14:18:28.666Z,0.70
2019-05-15T14:20:58.420Z,1.00
2019-05-15T14:23:29.494Z,0.80
2019-05-15T14:25:58.908Z,0.70
2019-05-15T14:28:28.734Z,0.73
2019-05-15T14:30:58.619Z,0.90
2019-05-15T14:33:29.250Z,0.80
2019-05-15T14:35:58.475Z,0.73
2019-05-15T14:38:29.076Z,0.70
2019-05-15T14:40:59.022Z,0.90
2019-05-15T14:43:29.356Z,1.00
2019-05-15T14:45:58.849Z,0.90
2019-05-15T14:48:28.220Z,0.70
2019-05-15T14:50:58.433Z,0.83
2019-05-15T14:53:29.489Z,0.90
2019-05-15T14:56:00.284Z,1.00
2019-05-15T14:58:28.906Z,1.00
2019-05-15T15:01:03.525Z,0.77
2019-05-15T15:03:29.019Z,0.80
2019-05-15T15:05:58.695Z,0.90
2019-05-15T15:08:29.216Z,0.90
2019-05-15T15:10:59.433Z,0.80
2019-05-15T15:13:28.995Z,0.90
2019-05-15T15:15:59.143Z,0.90
2019-05-15T15:18:28.347Z,0.80
2019-05-15T15:20:58.023Z,1.10
2019-05-15T15:23:28.400Z,1.07
2019-05-15T15:25:57.908Z,1.10
2019-05-15T15:28:27.211Z,0.77
2019-05-15T15:30:58.136Z,0.87
2019-05-15T15:33:28.886Z,0.93
2019-05-15T15:35:58.136Z,0.87
2019-05-15T15:38:38.090Z,1.00
2019-05-15T15:41:00.090Z,0.93
2019-05-15T15:43:28.818Z,1.03
2019-05-15T15:45:58.124Z,1.00
2019-05-15T15:48:28.527Z,1.10
2019-05-15T15:50:58.573Z,1.10
2019-05-15T15:53:28.762Z,0.90
2019-05-15T15:55:57.701Z,0.90
2019-05-15T15:58:29.021Z,1.00
2019-05-15T16:00:57.179Z,0.80
2019-05-15T16:03:28.629Z,1.10
2019-05-15T16:05:57.074Z,1.00
2019-05-15T16:08:25.717Z,1.00
2019-05-15T16:10:54.523Z,1.00
2019-05-15T16:13:23.237Z,0.70
2019-05-15T16:15:52.225Z,0.90
2019-05-15T16:18:20.846Z,1.30
2019-05-15T16:20:49.478Z,1.10
2019-05-15T16:23:18.942Z,0.93
2019-05-15T16:25:48.967Z,1.30
2019-05-15T16:28:18.594Z,1.07
2019-05-15T16:30:51.320Z,1.00
2019-05-15T16:33:18.533Z,0.90
2019-05-15T16:35:48.788Z,1.00
2019-05-15T16:38:19.197Z,1.00
2019-05-15T16:40:48.903Z,1.13
2019-05-15T16:43:18.044Z,1.27
2019-05-15T16:45:49.640Z,1.30
2019-05-15T16:48:18.698Z,1.07
2019-05-15T16:50:48.827Z,1.23
2019-05-15T16:53:18.242Z,0.93
2019-05-15T16:55:48.107Z,1.10
2019-05-15T16:58:19.134Z,0.80
2019-05-15T17:00:49.638Z,1.37
2019-05-15T17:03:18.500Z,1.10
2019-05-15T17:05:47.969Z,1.10
2019-05-15T17:08:18.130Z,0.90
2019-05-15T17:10:48.310Z,1.20
2019-05-15T17:13:21.107Z,0.80
2019-05-15T17:15:49.826Z,0.97
2019-05-15T17:18:18.449Z,1.10
2019-05-15T17:20:48.401Z,0.90
2019-05-15T17:23:18.877Z,0.97
2019-05-15T17:25:48.905Z,1.10
2019-05-15T17:28:18.479Z,0.90
2019-05-15T17:30:48.807Z,1.03
2019-05-15T17:33:18.465Z,1.00
2019-05-15T17:35:48.765Z,0.80
2019-05-15T17:38:18.532Z,1.00
2019-05-15T17:40:48.585Z,1.00
2019-05-15T17:43:18.207Z,0.93
2019-05-15T17:45:48.226Z,1.00
2019-05-15T17:48:19.359Z,1.20
2019-05-15T17:50:52.261Z,1.13
2019-05-15T17:53:18.535Z,1.83
2019-05-15T17:55:47.896Z,1.30
2019-05-15T17:58:16.804Z,1.10
2019-05-15T18:00:45.699Z,1.03
2019-05-15T18:03:14.352Z,1.00
2019-05-15T18:05:43.385Z,1.20
2019-05-15T18:08:12.261Z,1.20
2019-05-15T18:10:41.270Z,1.10
2019-05-15T18:13:10.357Z,0.90
2019-05-15T18:15:40.404Z,1.07
2019-05-15T18:18:09.716Z,1.20
2019-05-15T18:20:38.738Z,1.27
2019-05-15T18:23:08.506Z,1.00
2019-05-15T18:25:38.421Z,1.20
2019-05-15T18:28:08.487Z,1.13
2019-05-15T18:30:38.856Z,1.00
2019-05-15T18:33:08.618Z,1.00
2019-05-15T18:35:38.473Z,1.13
2019-05-15T18:38:08.589Z,1.20
2019-05-15T18:40:38.545Z,1.30
2019-05-15T18:43:10.052Z,1.23
2019-05-15T18:45:38.950Z,1.10
2019-05-15T18:48:07.835Z,1.20
2019-05-15T18:50:37.783Z,1.40
2019-05-15T18:53:08.947Z,1.40
2019-05-15T18:55:38.542Z,1.00
2019-05-15T18:58:08.813Z,1.37
2019-05-15T19:00:39.963Z,1.40
2019-05-15T19:03:18.797Z,1.40
2019-05-15T19:05:39.351Z,1.30
2019-05-15T19:08:08.497Z,1.20
2019-05-15T19:10:38.587Z,1.40
2019-05-15T19:13:08.503Z,1.27
2019-05-15T19:15:38.067Z,1.33
2019-05-15T19:18:08.067Z,1.43
2019-05-15T19:20:38.796Z,1.10
2019-05-15T19:23:08.182Z,1.33
2019-05-15T19:25:37.494Z,1.90
2019-05-15T19:28:08.369Z,1.40
2019-05-15T19:30:38.715Z,1.30
2019-05-15T19:33:07.816Z,1.27
2019-05-15T19:35:38.708Z,1.30
2019-05-15T19:38:07.991Z,1.10
2019-05-15T19:40:38.994Z,1.50
2019-05-15T19:43:09.223Z,1.40
2019-05-15T19:45:38.713Z,1.83
2019-05-15T19:48:08.940Z,1.30
2019-05-15T19:50:38.597Z,1.60
2019-05-15T19:53:08.172Z,1.40
2019-05-15T19:55:37.708Z,1.83
2019-05-15T19:58:08.724Z,1.60
2019-05-15T20:00:38.742Z,1.63
2019-05-15T20:03:08.382Z,1.30
2019-05-15T20:05:38.074Z,1.30
2019-05-15T20:08:11.418Z,1.13
2019-05-15T20:10:40.994Z,1.20
2019-05-15T20:13:10.063Z,1.10
2019-05-15T20:15:39.135Z,1.30
2019-05-15T20:18:08.516Z,1.30
2019-05-15T20:20:38.660Z,1.10
2019-05-15T20:23:08.501Z,1.40
2019-05-15T20:25:38.317Z,1.30
2019-05-15T20:28:08.433Z,1.50
2019-05-15T20:30:38.917Z,1.10
2019-05-15T20:33:08.879Z,1.20
2019-05-15T20:35:38.603Z,1.60
2019-05-15T20:38:07.801Z,1.43
2019-05-15T20:40:36.437Z,1.43
2019-05-15T20:43:07.944Z,1.60
2019-05-15T20:45:36.367Z,1.53
2019-05-15T20:48:05.089Z,1.63
2019-05-15T20:50:34.412Z,1.40
2019-05-15T20:53:03.099Z,0.90
2019-05-15T20:55:32.009Z,1.10
2019-05-15T20:58:00.722Z,0.90
2019-05-15T21:00:29.679Z,1.33
2019-05-15T21:02:58.673Z,1.00
2019-05-15T21:05:27.930Z,1.10
2019-05-15T21:07:57.283Z,1.07
2019-05-15T21:10:26.306Z,1.30
2019-05-15T21:12:55.257Z,0.90
2019-05-15T21:15:23.892Z,1.10
2019-05-15T21:17:59.669Z,1.20
2019-05-15T21:20:23.262Z,0.90
2019-05-15T21:22:51.891Z,1.10
2019-05-15T21:25:20.864Z,1.13
2019-05-15T21:27:50.138Z,0.80
2019-05-15T21:30:19.719Z,1.30
2019-05-15T21:32:49.315Z,1.13
2019-05-15T21:35:18.871Z,1.03
2019-05-15T21:37:48.895Z,1.10
2019-05-15T21:40:17.793Z,0.80
2019-05-15T21:42:49.228Z,0.90
2019-05-15T21:45:18.443Z,0.90
2019-05-15T21:47:47.304Z,0.93
2019-05-15T21:50:16.014Z,1.03
2019-05-15T21:52:44.992Z,0.97
2019-05-15T21:55:13.791Z,1.00
2019-05-15T21:57:43.479Z,1.10
2019-05-15T22:00:19.263Z,0.90
2019-05-15T22:02:49.337Z,0.90
2019-05-15T22:05:19.151Z,0.80
2019-05-15T22:07:51.077Z,1.10
2019-05-15T22:10:19.310Z,0.80
2019-05-15T22:12:48.751Z,0.80
2019-05-15T22:15:19.023Z,0.90
2019-05-15T22:17:49.316Z,1.00
2019-05-15T22:20:19.182Z,0.80
2019-05-15T22:22:50.365Z,0.87
2019-05-15T22:25:19.230Z,1.00
2019-05-15T22:27:48.616Z,1.20
2019-05-15T22:30:18.978Z,0.80
2019-05-15T22:32:49.522Z,0.87
2019-05-15T22:35:19.083Z,1.03
2019-05-15T22:37:49.255Z,0.80
2019-05-15T22:40:19.533Z,0.83
2019-05-15T22:42:48.873Z,0.90
2019-05-15T22:45:18.529Z,0.80
2019-05-15T22:47:48.377Z,1.03
2019-05-15T22:50:18.850Z,0.93
2019-05-15T22:52:49.236Z,1.03
2019-05-15T22:55:18.716Z,0.90
2019-05-15T22:57:48.131Z,1.10
2019-05-15T23:00:18.983Z,0.80
2019-05-15T23:02:48.955Z,1.20
2019-05-15T23:05:27.755Z,0.80
2019-05-15T23:07:48.461Z,0.80
2019-05-15T23:10:17.667Z,0.70
2019-05-15T23:12:48.540Z,0.90
2019-05-15T23:15:18.911Z,1.10
2019-05-15T23:17:48.691Z,0.90
2019-05-15T23:20:17.853Z,0.90
2019-05-15T23:22:46.655Z,0.80
2019-05-15T23:25:15.361Z,1.00
2019-05-15T23:27:44.334Z,0.90
2019-05-15T23:30:13.028Z,1.10
2019-05-15T23:32:42.216Z,1.00
2019-05-15T23:35:11.216Z,1.03
2019-05-15T23:37:40.108Z,1.10
2019-05-15T23:40:09.202Z,1.00
2019-05-15T23:42:39.106Z,0.93
2019-05-15T23:45:08.629Z,1.00
2019-05-15T23:47:38.489Z,1.10
2019-05-15T23:50:07.677Z,1.00
2019-05-15T23:52:38.535Z,1.03
2019-05-15T23:55:08.579Z,1.40
2019-05-15T23:57:39.252Z,1.23
